sensor_id;sensor_type;location;lat;lon;timestamp;pressure;altitude;pressure_sealevel;temperature;humidity
71974;BME280;59840;52.122;5.404;2022-10-17T00:01:44;101763.56;;;12.79;97.02
71974;BME280;59840;52.122;5.404;2022-10-17T00:36:58;101734.50;;;12.55;97.09
71974;BME280;59840;52.122;5.404;2022-10-17T00:58:30;101734.75;;;12.54;97.75
71974;BME280;59840;52.122;5.404;2022-10-17T01:55:51;101695.94;;;12.59;98.09
71974;BME280;59840;52.122;5.404;2022-10-17T03:08:09;101644.22;;;12.68;100.00
71974;BME280;59840;52.122;5.404;2022-10-17T05:55:39;101707.94;;;14.13;100.00
71974;BME280;59840;52.122;5.404;2022-10-17T05:58:06;101709.78;;;14.12;100.00
71974;BME280;59840;52.122;5.404;2022-10-17T06:00:32;101706.31;;;14.12;100.00
71974;BME280;59840;52.122;5.404;2022-10-17T06:02:59;101707.38;;;14.11;100.00
71974;BME280;59840;52.122;5.404;2022-10-17T06:05:25;101707.94;;;14.13;100.00
71974;BME280;59840;52.122;5.404;2022-10-17T06:07:52;101705.28;;;14.13;100.00
71974;BME280;59840;52.122;5.404;2022-10-17T06:10:24;101713.22;;;14.13;100.00
71974;BME280;59840;52.122;5.404;2022-10-17T06:12:51;101719.34;;;14.13;100.00
71974;BME280;59840;52.122;5.404;2022-10-17T06:15:17;101727.88;;;14.15;100.00
71974;BME280;59840;52.122;5.404;2022-10-17T06:17:44;101723.13;;;14.17;100.00
71974;BME280;59840;52.122;5.404;2022-10-17T06:20:10;101714.34;;;14.17;100.00
71974;BME280;59840;52.122;5.404;2022-10-17T06:22:37;101717.81;;;14.17;100.00
71974;BME280;59840;52.122;5.404;2022-10-17T06:25:03;101718.38;;;14.19;100.00
71974;BME280;59840;52.122;5.404;2022-10-17T06:27:30;101733.78;;;14.22;100.00
71974;BME280;59840;52.122;5.404;2022-10-17T06:29:56;101742.06;;;14.26;100.00
71974;BME280;59840;52.122;5.404;2022-10-17T06:32:23;101744.78;;;14.31;100.00
71974;BME280;59840;52.122;5.404;2022-10-17T06:34:49;101749.03;;;14.32;100.00
71974;BME280;59840;52.122;5.404;2022-10-17T06:37:16;101753.38;;;14.38;100.00
71974;BME280;59840;52.122;5.404;2022-10-17T06:39:42;101751.03;;;14.41;100.00
71974;BME280;59840;52.122;5.404;2022-10-17T06:42:09;101755.63;;;14.46;100.00
71974;BME280;59840;52.122;5.404;2022-10-17T06:44:38;101758.34;;;14.51;100.00
71974;BME280;59840;52.122;5.404;2022-10-17T06:47:06;101760.75;;;14.53;100.00
71974;BME280;59840;52.122;5.404;2022-10-17T06:49:32;101754.38;;;14.54;100.00
71974;BME280;59840;52.122;5.404;2022-10-17T06:51:59;101766.34;;;14.56;100.00
71974;BME280;59840;52.122;5.404;2022-10-17T06:57:48;101783.69;;;14.64;100.00
71974;BME280;59840;52.122;5.404;2022-10-17T07:00:17;101779.50;;;14.68;100.00
71974;BME280;59840;52.122;5.404;2022-10-17T07:06:48;101789.94;;;14.74;100.00
71974;BME280;59840;52.122;5.404;2022-10-17T07:20:13;101798.28;;;14.83;100.00
71974;BME280;59840;52.122;5.404;2022-10-17T07:22:39;101805.47;;;14.83;100.00
71974;BME280;59840;52.122;5.404;2022-10-17T07:25:07;101804.41;;;14.84;100.00
71974;BME280;59840;52.122;5.404;2022-10-17T07:28:07;101806.56;;;14.87;100.00
71974;BME280;59840;52.122;5.404;2022-10-17T07:30:34;101789.56;;;14.88;100.00
71974;BME280;59840;52.122;5.404;2022-10-17T07:33:00;101793.28;;;14.87;100.00
71974;BME280;59840;52.122;5.404;2022-10-17T07:35:30;101781.03;;;14.86;100.00
71974;BME280;59840;52.122;5.404;2022-10-17T07:41:53;101819.88;;;14.92;100.00
71974;BME280;59840;52.122;5.404;2022-10-17T07:48:17;101815.94;;;14.94;100.00
71974;BME280;59840;52.122;5.404;2022-10-17T07:54:44;101846.03;;;15.00;100.00
71974;BME280;59840;52.122;5.404;2022-10-17T08:01:15;101920.75;;;15.03;100.00
71974;BME280;59840;52.122;5.404;2022-10-17T08:03:43;101927.19;;;15.07;100.00
71974;BME280;59840;52.122;5.404;2022-10-17T08:06:11;101943.69;;;15.09;100.00
71974;BME280;59840;52.122;5.404;2022-10-17T08:08:38;101961.81;;;15.13;100.00
71974;BME280;59840;52.122;5.404;2022-10-17T08:11:07;101958.44;;;15.17;100.00
71974;BME280;59840;52.122;5.404;2022-10-17T08:13:36;101958.72;;;15.21;100.00
71974;BME280;59840;52.122;5.404;2022-10-17T08:16:05;101947.59;;;15.24;100.00
71974;BME280;59840;52.122;5.404;2022-10-17T08:18:36;101955.63;;;15.29;100.00
71974;BME280;59840;52.122;5.404;2022-10-17T08:21:04;101963.09;;;15.32;100.00
71974;BME280;59840;52.122;5.404;2022-10-17T08:23:31;101953.34;;;15.37;100.00
71974;BME280;59840;52.122;5.404;2022-10-17T08:25:59;101937.19;;;15.44;100.00
71974;BME280;59840;52.122;5.404;2022-10-17T08:28:26;101933.22;;;15.47;100.00
71974;BME280;59840;52.122;5.404;2022-10-17T08:30:52;101935.13;;;15.51;100.00
71974;BME280;59840;52.122;5.404;2022-10-17T08:33:19;101934.41;;;15.56;100.00
71974;BME280;59840;52.122;5.404;2022-10-17T08:35:45;101945.38;;;15.59;100.00
71974;BME280;59840;52.122;5.404;2022-10-17T08:38:12;101954.69;;;15.62;100.00
71974;BME280;59840;52.122;5.404;2022-10-17T08:40:39;101956.03;;;15.64;100.00
71974;BME280;59840;52.122;5.404;2022-10-17T08:46:07;101999.47;;;15.70;100.00
71974;BME280;59840;52.122;5.404;2022-10-17T08:48:38;102001.63;;;15.73;100.00
71974;BME280;59840;52.122;5.404;2022-10-17T08:51:18;102022.19;;;15.78;100.00
71974;BME280;59840;52.122;5.404;2022-10-17T08:54:02;102021.38;;;15.77;100.00
71974;BME280;59840;52.122;5.404;2022-10-17T08:56:39;102025.66;;;15.78;100.00
71974;BME280;59840;52.122;5.404;2022-10-17T08:59:26;102009.44;;;15.80;100.00
71974;BME280;59840;52.122;5.404;2022-10-17T09:08:21;101962.63;;;15.84;100.00
71974;BME280;59840;52.122;5.404;2022-10-17T09:10:57;101946.41;;;15.85;100.00
71974;BME280;59840;52.122;5.404;2022-10-17T09:16:17;101930.50;;;15.95;100.00
71974;BME280;59840;52.122;5.404;2022-10-17T09:21:58;101933.28;;;16.05;100.00
71974;BME280;59840;52.122;5.404;2022-10-17T09:26:59;101944.72;;;16.06;100.00
71974;BME280;59840;52.122;5.404;2022-10-17T09:29:26;101958.03;;;16.06;100.00
71974;BME280;59840;52.122;5.404;2022-10-17T09:32:16;101991.84;;;16.05;100.00
71974;BME280;59840;52.122;5.404;2022-10-17T09:34:43;101996.63;;;16.03;100.00
71974;BME280;59840;52.122;5.404;2022-10-17T09:37:13;102015.50;;;16.02;100.00
71974;BME280;59840;52.122;5.404;2022-10-17T09:39:41;102016.81;;;15.99;100.00
71974;BME280;59840;52.122;5.404;2022-10-17T09:42:14;102008.81;;;15.99;100.00
71974;BME280;59840;52.122;5.404;2022-10-17T09:44:56;101984.84;;;15.99;100.00
71974;BME280;59840;52.122;5.404;2022-10-17T09:48:16;101963.63;;;16.04;100.00
71974;BME280;59840;52.122;5.404;2022-10-17T09:50:44;101960.44;;;16.07;100.00
71974;BME280;59840;52.122;5.404;2022-10-17T09:53:36;101957.56;;;16.14;100.00
71974;BME280;59840;52.122;5.404;2022-10-17T09:56:07;101966.72;;;16.23;100.00
71974;BME280;59840;52.122;5.404;2022-10-17T10:01:23;101967.06;;;16.37;100.00
71974;BME280;59840;52.122;5.404;2022-10-17T10:04:14;101973.78;;;16.45;100.00
71974;BME280;59840;52.122;5.404;2022-10-17T10:07:02;101995.41;;;16.48;100.00
71974;BME280;59840;52.122;5.404;2022-10-17T10:09:31;102012.44;;;16.47;100.00
71974;BME280;59840;52.122;5.404;2022-10-17T10:12:18;102002.28;;;16.44;100.00
71974;BME280;59840;52.122;5.404;2022-10-17T10:14:45;102013.50;;;16.46;100.00
71974;BME280;59840;52.122;5.404;2022-10-17T10:17:36;102014.84;;;16.49;100.00
71974;BME280;59840;52.122;5.404;2022-10-17T10:20:33;102030.38;;;16.57;100.00
71974;BME280;59840;52.122;5.404;2022-10-17T10:23:17;102043.47;;;16.63;100.00
71974;BME280;59840;52.122;5.404;2022-10-17T10:25:56;102056.78;;;16.63;100.00
71974;BME280;59840;52.122;5.404;2022-10-17T10:28:29;102067.44;;;16.58;100.00
71974;BME280;59840;52.122;5.404;2022-10-17T10:31:01;102078.59;;;16.55;100.00
71974;BME280;59840;52.122;5.404;2022-10-17T10:33:31;102083.63;;;16.52;100.00
71974;BME280;59840;52.122;5.404;2022-10-17T10:36:04;102076.94;;;16.49;100.00
71974;BME280;59840;52.122;5.404;2022-10-17T10:38:34;102087.59;;;16.49;100.00
71974;BME280;59840;52.122;5.404;2022-10-17T10:41:02;102081.75;;;16.52;100.00
71974;BME280;59840;52.122;5.404;2022-10-17T10:43:44;102085.53;;;16.56;100.00
71974;BME280;59840;52.122;5.404;2022-10-17T10:46:23;102090.91;;;16.61;100.00
71974;BME280;59840;52.122;5.404;2022-10-17T10:48:59;102096.28;;;16.66;100.00
71974;BME280;59840;52.122;5.404;2022-10-17T10:51:29;102090.41;;;16.64;100.00
71974;BME280;59840;52.122;5.404;2022-10-17T10:54:22;102090.69;;;16.68;100.00
71974;BME280;59840;52.122;5.404;2022-10-17T10:56:53;102090.41;;;16.64;100.00
71974;BME280;59840;52.122;5.404;2022-10-17T11:02:11;102102.47;;;16.72;100.00
71974;BME280;59840;52.122;5.404;2022-10-17T11:04:53;102108.94;;;16.81;100.00
71974;BME280;59840;52.122;5.404;2022-10-17T11:07:27;102114.09;;;16.93;100.00
71974;BME280;59840;52.122;5.404;2022-10-17T11:10:22;102110.44;;;17.04;100.00
71974;BME280;59840;52.122;5.404;2022-10-17T11:12:58;102117.16;;;17.12;100.00
71974;BME280;59840;52.122;5.404;2022-10-17T11:15:50;102117.19;;;17.17;99.69
71974;BME280;59840;52.122;5.404;2022-10-17T11:18:28;102118.00;;;17.17;99.67
71974;BME280;59840;52.122;5.404;2022-10-17T11:21:02;102115.66;;;17.26;99.48
71974;BME280;59840;52.122;5.404;2022-10-17T11:24:02;102131.44;;;17.37;99.06
71974;BME280;59840;52.122;5.404;2022-10-17T11:26:40;102132.50;;;17.31;98.32
71974;BME280;59840;52.122;5.404;2022-10-17T11:29:09;102142.84;;;17.23;98.36
71974;BME280;59840;52.122;5.404;2022-10-17T11:31:42;102145.72;;;17.16;98.53
71974;BME280;59840;52.122;5.404;2022-10-17T11:34:24;102150.47;;;17.09;98.61
71974;BME280;59840;52.122;5.404;2022-10-17T11:48:44;102161.00;;;16.89;99.03
71974;BME280;59840;52.122;5.404;2022-10-17T11:51:15;102168.75;;;16.90;98.99
71974;BME280;59840;52.122;5.404;2022-10-17T12:02:10;102164.41;;;17.16;99.11
71974;BME280;59840;52.122;5.404;2022-10-17T12:04:51;102163.97;;;17.29;98.43
71974;BME280;59840;52.122;5.404;2022-10-17T12:08:34;102165.91;;;17.44;98.17
71974;BME280;59840;52.122;5.404;2022-10-17T12:33:00;102175.06;;;17.53;96.32
71974;BME280;59840;52.122;5.404;2022-10-17T12:39:41;102181.38;;;17.42;96.55
71974;BME280;59840;52.122;5.404;2022-10-17T12:42:30;102179.22;;;17.39;96.55
71974;BME280;59840;52.122;5.404;2022-10-17T12:52:15;102195.19;;;17.29;96.90
71974;BME280;59840;52.122;5.404;2022-10-17T12:54:45;102201.28;;;17.24;97.01
71974;BME280;59840;52.122;5.404;2022-10-17T12:57:38;102202.34;;;17.23;97.15
71974;BME280;59840;52.122;5.404;2022-10-17T13:00:26;102200.72;;;17.22;97.15
71974;BME280;59840;52.122;5.404;2022-10-17T13:03:00;102201.50;;;17.18;96.98
71974;BME280;59840;52.122;5.404;2022-10-17T13:05:30;102204.16;;;17.18;97.26
71974;BME280;59840;52.122;5.404;2022-10-17T13:07:59;102204.41;;;17.16;97.16
71974;BME280;59840;52.122;5.404;2022-10-17T13:10:28;102216.13;;;17.15;97.39
71974;BME280;59840;52.122;5.404;2022-10-17T13:16:06;102225.84;;;17.26;97.29
71974;BME280;59840;52.122;5.404;2022-10-17T13:18:33;102219.69;;;17.26;97.51
71974;BME280;59840;52.122;5.404;2022-10-17T13:21:14;102233.28;;;17.24;97.27
71974;BME280;59840;52.122;5.404;2022-10-17T13:23:41;102230.31;;;17.21;97.50
71974;BME280;59840;52.122;5.404;2022-10-17T13:26:20;102233.53;;;17.23;97.56
71974;BME280;59840;52.122;5.404;2022-10-17T13:29:03;102238.13;;;17.27;97.70
71974;BME280;59840;52.122;5.404;2022-10-17T13:42:36;102266.72;;;17.69;96.40
71974;BME280;59840;52.122;5.404;2022-10-17T13:51:52;102285.41;;;17.69;94.88
71974;BME280;59840;52.122;5.404;2022-10-17T14:01:29;102297.34;;;17.61;95.15
71974;BME280;59840;52.122;5.404;2022-10-17T14:11:25;102299.78;;;17.63;94.74
71974;BME280;59840;52.122;5.404;2022-10-17T14:13:53;102295.25;;;17.63;94.57
71974;BME280;59840;52.122;5.404;2022-10-17T14:16:22;102290.72;;;17.64;94.60
71974;BME280;59840;52.122;5.404;2022-10-17T14:18:50;102290.47;;;17.65;94.28
71974;BME280;59840;52.122;5.404;2022-10-17T14:21:46;102292.09;;;17.71;94.25
71974;BME280;59840;52.122;5.404;2022-10-17T14:34:50;102279.38;;;17.84;93.92
71974;BME280;59840;52.122;5.404;2022-10-17T14:45:41;102296.59;;;18.08;92.62
71974;BME280;59840;52.122;5.404;2022-10-17T15:03:46;102307.59;;;17.74;92.66
71974;BME280;59840;52.122;5.404;2022-10-17T15:06:25;102320.38;;;17.67;92.76
71974;BME280;59840;52.122;5.404;2022-10-17T16:12:06;102395.63;;;16.50;95.70
71974;BME280;59840;52.122;5.404;2022-10-17T16:14:35;102394.72;;;16.45;95.90
71974;BME280;59840;52.122;5.404;2022-10-17T16:17:02;102402.66;;;16.39;96.47
71974;BME280;59840;52.122;5.404;2022-10-17T16:19:28;102409.75;;;16.34;96.25
71974;BME280;59840;52.122;5.404;2022-10-17T16:21:57;102415.28;;;16.27;96.38
71974;BME280;59840;52.122;5.404;2022-10-17T16:24:36;102415.19;;;16.22;96.38
71974;BME280;59840;52.122;5.404;2022-10-17T17:14:43;102450.44;;;15.39;98.18
71974;BME280;59840;52.122;5.404;2022-10-17T17:17:09;102456.00;;;15.37;98.58
71974;BME280;59840;52.122;5.404;2022-10-17T17:19:55;102457.53;;;15.33;98.47
71974;BME280;59840;52.122;5.404;2022-10-17T17:22:22;102451.41;;;15.33;98.72
71974;BME280;59840;52.122;5.404;2022-10-17T17:24:48;102455.56;;;15.29;98.80
71974;BME280;59840;52.122;5.404;2022-10-17T17:27:20;102463.78;;;15.27;98.86
71974;BME280;59840;52.122;5.404;2022-10-17T17:29:46;102465.88;;;15.25;99.19
71974;BME280;59840;52.122;5.404;2022-10-17T17:32:13;102462.66;;;15.23;99.25
71974;BME280;59840;52.122;5.404;2022-10-17T17:34:39;102465.56;;;15.22;99.44
71974;BME280;59840;52.122;5.404;2022-10-17T17:37:06;102470.88;;;15.22;99.42
71974;BME280;59840;52.122;5.404;2022-10-17T17:39:33;102471.91;;;15.21;99.34
71974;BME280;59840;52.122;5.404;2022-10-17T17:41:59;102479.31;;;15.19;99.23
71974;BME280;59840;52.122;5.404;2022-10-17T17:44:26;102472.63;;;15.16;99.56
71974;BME280;59840;52.122;5.404;2022-10-17T17:46:52;102480.59;;;15.16;99.58
71974;BME280;59840;52.122;5.404;2022-10-17T17:49:19;102483.47;;;15.15;99.53
71974;BME280;59840;52.122;5.404;2022-10-17T17:51:46;102491.13;;;15.11;99.76
71974;BME280;59840;52.122;5.404;2022-10-17T17:54:13;102490.53;;;15.09;99.64
71974;BME280;59840;52.122;5.404;2022-10-17T17:56:40;102491.56;;;15.08;99.69
71974;BME280;59840;52.122;5.404;2022-10-17T17:59:06;102485.69;;;15.06;99.83
71974;BME280;59840;52.122;5.404;2022-10-17T18:01:43;102487.31;;;15.07;99.89
71974;BME280;59840;52.122;5.404;2022-10-17T18:11:45;102503.59;;;14.99;99.87
71974;BME280;59840;52.122;5.404;2022-10-17T18:14:12;102502.00;;;14.98;99.81
71974;BME280;59840;52.122;5.404;2022-10-17T18:16:39;102506.50;;;14.97;100.00
71974;BME280;59840;52.122;5.404;2022-10-17T18:19:07;102502.22;;;14.96;100.00
71974;BME280;59840;52.122;5.404;2022-10-17T18:21:58;102498.75;;;14.96;100.00
71974;BME280;59840;52.122;5.404;2022-10-17T18:24:25;102506.16;;;14.94;100.00
71974;BME280;59840;52.122;5.404;2022-10-17T18:26:51;102517.81;;;14.93;100.00
71974;BME280;59840;52.122;5.404;2022-10-17T18:29:27;102526.84;;;14.92;100.00
71974;BME280;59840;52.122;5.404;2022-10-17T18:31:54;102522.81;;;14.89;100.00
71974;BME280;59840;52.122;5.404;2022-10-17T18:34:21;102535.28;;;14.89;100.00
71974;BME280;59840;52.122;5.404;2022-10-17T18:36:47;102531.59;;;14.90;100.00
71974;BME280;59840;52.122;5.404;2022-10-17T18:39:14;102529.16;;;14.88;100.00
71974;BME280;59840;52.122;5.404;2022-10-17T18:41:40;102522.47;;;14.86;100.00
71974;BME280;59840;52.122;5.404;2022-10-17T18:44:08;102527.22;;;14.84;100.00
71974;BME280;59840;52.122;5.404;2022-10-17T18:46:35;102529.88;;;14.84;100.00
71974;BME280;59840;52.122;5.404;2022-10-17T18:49:18;102530.09;;;14.82;100.00
71974;BME280;59840;52.122;5.404;2022-10-17T18:51:45;102530.56;;;14.79;100.00
71974;BME280;59840;52.122;5.404;2022-10-17T18:54:19;102533.66;;;14.76;100.00
71974;BME280;59840;52.122;5.404;2022-10-17T18:56:52;102532.72;;;14.70;100.00
71974;BME280;59840;52.122;5.404;2022-10-17T18:59:19;102550.75;;;14.68;100.00
71974;BME280;59840;52.122;5.404;2022-10-17T19:01:46;102547.50;;;14.66;100.00
71974;BME280;59840;52.122;5.404;2022-10-17T19:04:13;102549.59;;;14.64;100.00
71974;BME280;59840;52.122;5.404;2022-10-17T19:06:40;102550.03;;;14.61;100.00
71974;BME280;59840;52.122;5.404;2022-10-17T19:09:08;102552.13;;;14.59;100.00
71974;BME280;59840;52.122;5.404;2022-10-17T19:11:54;102539.88;;;14.58;100.00
71974;BME280;59840;52.122;5.404;2022-10-17T19:14:21;102544.59;;;14.56;100.00
71974;BME280;59840;52.122;5.404;2022-10-17T19:16:48;102541.41;;;14.54;100.00
71974;BME280;59840;52.122;5.404;2022-10-17T19:19:22;102562.66;;;14.54;100.00
71974;BME280;59840;52.122;5.404;2022-10-17T19:21:48;102564.13;;;14.50;100.00
71974;BME280;59840;52.122;5.404;2022-10-17T19:24:20;102565.41;;;14.48;100.00
71974;BME280;59840;52.122;5.404;2022-10-17T19:26:48;102561.34;;;14.45;100.00
71974;BME280;59840;52.122;5.404;2022-10-17T19:29:16;102565.03;;;14.44;100.00
71974;BME280;59840;52.122;5.404;2022-10-17T19:31:44;102568.72;;;14.43;100.00
71974;BME280;59840;52.122;5.404;2022-10-17T19:34:11;102567.13;;;14.42;100.00
71974;BME280;59840;52.122;5.404;2022-10-17T19:36:39;102571.22;;;14.38;100.00
71974;BME280;59840;52.122;5.404;2022-10-17T19:39:11;102564.28;;;14.37;100.00
71974;BME280;59840;52.122;5.404;2022-10-17T19:41:42;102566.38;;;14.35;100.00
71974;BME280;59840;52.122;5.404;2022-10-17T19:44:09;102558.63;;;14.33;100.00
71974;BME280;59840;52.122;5.404;2022-10-17T19:46:36;102552.50;;;14.33;100.00
71974;BME280;59840;52.122;5.404;2022-10-17T19:49:03;102549.25;;;14.31;100.00
71974;BME280;59840;52.122;5.404;2022-10-17T19:54:52;102563.81;;;14.28;100.00
71974;BME280;59840;52.122;5.404;2022-10-17T19:57:18;102559.97;;;14.24;100.00
71974;BME280;59840;52.122;5.404;2022-10-17T19:59:45;102564.47;;;14.24;100.00
71974;BME280;59840;52.122;5.404;2022-10-17T20:05:43;102575.81;;;14.19;100.00
71974;BME280;59840;52.122;5.404;2022-10-17T20:08:10;102576.84;;;14.18;100.00
71974;BME280;59840;52.122;5.404;2022-10-17T20:10:37;102584.56;;;14.20;100.00
71974;BME280;59840;52.122;5.404;2022-10-17T20:13:03;102584.56;;;14.20;100.00
71974;BME280;59840;52.122;5.404;2022-10-17T20:15:30;102586.66;;;14.18;100.00
71974;BME280;59840;52.122;5.404;2022-10-17T20:17:56;102591.47;;;14.21;100.00
71974;BME280;59840;52.122;5.404;2022-10-17T20:20:23;102594.94;;;14.21;100.00
71974;BME280;59840;52.122;5.404;2022-10-17T20:22:50;102596.34;;;14.24;100.00
71974;BME280;59840;52.122;5.404;2022-10-17T20:25:16;102596.94;;;14.26;100.00
71974;BME280;59840;52.122;5.404;2022-10-17T20:27:43;102601.19;;;14.27;100.00
71974;BME280;59840;52.122;5.404;2022-10-17T20:30:09;102606.50;;;14.27;100.00
71974;BME280;59840;52.122;5.404;2022-10-17T20:32:36;102600.16;;;14.28;100.00
71974;BME280;59840;52.122;5.404;2022-10-17T20:35:06;102615.66;;;14.31;100.00
71974;BME280;59840;52.122;5.404;2022-10-17T20:37:33;102615.19;;;14.34;100.00
71974;BME280;59840;52.122;5.404;2022-10-17T20:40:08;102624.66;;;14.30;100.00
71974;BME280;59840;52.122;5.404;2022-10-17T20:42:54;102624.06;;;14.28;100.00
71974;BME280;59840;52.122;5.404;2022-10-17T20:45:21;102617.94;;;14.27;100.00
71974;BME280;59840;52.122;5.404;2022-10-17T20:48:14;102627.31;;;14.30;100.00
71974;BME280;59840;52.122;5.404;2022-10-17T20:50:42;102632.63;;;14.30;100.00
71974;BME280;59840;52.122;5.404;2022-10-17T20:53:10;102637.94;;;14.30;100.00
71974;BME280;59840;52.122;5.404;2022-10-17T20:56:06;102643.25;;;14.30;100.00
71974;BME280;59840;52.122;5.404;2022-10-17T20:58:33;102646.94;;;14.29;100.00
71974;BME280;59840;52.122;5.404;2022-10-17T21:01:09;102643.69;;;14.27;100.00
71974;BME280;59840;52.122;5.404;2022-10-17T21:03:37;102655.56;;;14.24;100.00
71974;BME280;59840;52.122;5.404;2022-10-17T21:06:10;102662.72;;;14.24;100.00
71974;BME280;59840;52.122;5.404;2022-10-17T21:08:37;102667.22;;;14.23;100.00
71974;BME280;59840;52.122;5.404;2022-10-17T21:11:12;102666.63;;;14.21;100.00
71974;BME280;59840;52.122;5.404;2022-10-17T21:13:40;102663.75;;;14.23;100.00
71974;BME280;59840;52.122;5.404;2022-10-17T21:16:14;102668.63;;;14.26;100.00
71974;BME280;59840;52.122;5.404;2022-10-17T21:18:41;102665.03;;;14.20;100.00
71974;BME280;59840;52.122;5.404;2022-10-17T21:23:43;102669.53;;;14.20;100.00
71974;BME280;59840;52.122;5.404;2022-10-17T21:26:11;102674.25;;;14.18;100.00
71974;BME280;59840;52.122;5.404;2022-10-17T21:28:39;102673.66;;;14.16;100.00
71974;BME280;59840;52.122;5.404;2022-10-17T21:31:14;102675.16;;;14.12;100.00
71974;BME280;59840;52.122;5.404;2022-10-17T21:33:44;102672.56;;;14.05;100.00
71974;BME280;59840;52.122;5.404;2022-10-17T21:36:11;102678.31;;;14.02;100.00
71974;BME280;59840;52.122;5.404;2022-10-17T21:38:39;102674.16;;;13.88;100.00
71974;BME280;59840;52.122;5.404;2022-10-17T21:41:07;102679.69;;;13.86;100.00
71974;BME280;59840;52.122;5.404;2022-10-17T21:43:35;102673.97;;;13.89;100.00
71974;BME280;59840;52.122;5.404;2022-10-17T21:46:04;102674.75;;;13.90;100.00
71974;BME280;59840;52.122;5.404;2022-10-17T21:48:32;102667.03;;;13.88;100.00
71974;BME280;59840;52.122;5.404;2022-10-17T21:51:01;102670.16;;;13.85;100.00
71974;BME280;59840;52.122;5.404;2022-10-17T21:53:29;102667.13;;;13.82;100.00
71974;BME280;59840;52.122;5.404;2022-10-17T21:56:04;102663.66;;;13.81;100.00
71974;BME280;59840;52.122;5.404;2022-10-17T21:58:32;102667.34;;;13.80;100.00
71974;BME280;59840;52.122;5.404;2022-10-17T22:01:10;102670.06;;;13.73;100.00
71974;BME280;59840;52.122;5.404;2022-10-17T22:03:40;102677.66;;;13.70;100.00
71974;BME280;59840;52.122;5.404;2022-10-17T22:06:14;102681.53;;;13.67;100.00
71974;BME280;59840;52.122;5.404;2022-10-17T22:09:01;102685.44;;;13.65;100.00
71974;BME280;59840;52.122;5.404;2022-10-17T22:11:31;102683.00;;;13.63;100.00
71974;BME280;59840;52.122;5.404;2022-10-17T22:13:59;102690.81;;;13.58;100.00
71974;BME280;59840;52.122;5.404;2022-10-17T22:16:27;102691.03;;;13.57;100.00
71974;BME280;59840;52.122;5.404;2022-10-17T22:19:01;102693.09;;;13.55;100.00
71974;BME280;59840;52.122;5.404;2022-10-17T22:21:33;102691.47;;;13.54;100.00
71974;BME280;59840;52.122;5.404;2022-10-17T22:24:04;102694.94;;;13.54;100.00
71974;BME280;59840;52.122;5.404;2022-10-17T22:26:33;102688.81;;;13.54;100.00
71974;BME280;59840;52.122;5.404;2022-10-17T22:29:00;102692.28;;;13.54;100.00
71974;BME280;59840;52.122;5.404;2022-10-17T22:31:26;102690.88;;;13.52;100.00
71974;BME280;59840;52.122;5.404;2022-10-17T22:33:53;102689.28;;;13.51;100.00
71974;BME280;59840;52.122;5.404;2022-10-17T22:36:19;102701.72;;;13.50;100.00
71974;BME280;59840;52.122;5.404;2022-10-17T22:38:46;102694.41;;;13.46;100.00
71974;BME280;59840;52.122;5.404;2022-10-17T22:41:12;102702.22;;;13.40;100.00
71974;BME280;59840;52.122;5.404;2022-10-17T22:43:39;102699.00;;;13.32;100.00
71974;BME280;59840;52.122;5.404;2022-10-17T22:46:06;102692.91;;;13.31;100.00
71974;BME280;59840;52.122;5.404;2022-10-17T22:48:33;102699.81;;;13.32;100.00
71974;BME280;59840;52.122;5.404;2022-10-17T22:51:00;102702.69;;;13.31;100.00
71974;BME280;59840;52.122;5.404;2022-10-17T22:53:26;102707.19;;;13.30;100.00
71974;BME280;59840;52.122;5.404;2022-10-17T22:55:59;102708.22;;;13.29;100.00
71974;BME280;59840;52.122;5.404;2022-10-17T22:58:28;102710.25;;;13.27;100.00
71974;BME280;59840;52.122;5.404;2022-10-17T23:00:55;102707.81;;;13.26;100.00
71974;BME280;59840;52.122;5.404;2022-10-17T23:03:23;102705.81;;;13.21;100.00
71974;BME280;59840;52.122;5.404;2022-10-17T23:05:50;102700.38;;;13.16;100.00
71974;BME280;59840;52.122;5.404;2022-10-17T23:08:17;102714.84;;;13.14;100.00
71974;BME280;59840;52.122;5.404;2022-10-17T23:10:45;102706.50;;;13.10;100.00
71974;BME280;59840;52.122;5.404;2022-10-17T23:13:12;102705.31;;;13.06;100.00
71974;BME280;59840;52.122;5.404;2022-10-17T23:15:39;102709.19;;;13.03;100.00
71974;BME280;59840;52.122;5.404;2022-10-17T23:18:07;102704.91;;;13.02;100.00
71974;BME280;59840;52.122;5.404;2022-10-17T23:20:35;102712.88;;;13.02;100.00
71974;BME280;59840;52.122;5.404;2022-10-17T23:23:03;102708.38;;;13.03;100.00
71974;BME280;59840;52.122;5.404;2022-10-17T23:25:29;102713.09;;;13.01;100.00
71974;BME280;59840;52.122;5.404;2022-10-17T23:27:58;102709.84;;;12.99;100.00
71974;BME280;59840;52.122;5.404;2022-10-17T23:30:24;102709.25;;;12.97;100.00
71974;BME280;59840;52.122;5.404;2022-10-17T23:32:51;102711.88;;;12.97;100.00
71974;BME280;59840;52.122;5.404;2022-10-17T23:35:18;102712.91;;;12.96;100.00
71974;BME280;59840;52.122;5.404;2022-10-17T23:37:44;102707.00;;;12.94;100.00
71974;BME280;59840;52.122;5.404;2022-10-17T23:40:11;102703.75;;;12.92;100.00
71974;BME280;59840;52.122;5.404;2022-10-17T23:42:38;102702.75;;;12.93;100.00
71974;BME280;59840;52.122;5.404;2022-10-17T23:45:05;102709.06;;;12.92;100.00
71974;BME280;59840;52.122;5.404;2022-10-17T23:47:31;102715.38;;;12.91;100.00
71974;BME280;59840;52.122;5.404;2022-10-17T23:49:58;102707.44;;;12.91;100.00
71974;BME280;59840;52.122;5.404;2022-10-17T23:52:24;102701.94;;;12.92;100.00
71974;BME280;59840;52.122;5.404;2022-10-17T23:54:52;102703.75;;;12.92;100.00